sensor_id;sensor_type;location;lat;lon;timestamp;P1;durP1;ratioP1;P2;durP2;ratioP2
22768;SDS011;13001;51.968;5.918;2023-07-29T00:02:25;137.68;;;129.60;;
22768;SDS011;13001;51.968;5.918;2023-07-29T00:04:54;138.92;;;130.63;;
22768;SDS011;13001;51.968;5.918;2023-07-29T00:07:21;178.47;;;167.75;;
22768;SDS011;13001;51.968;5.918;2023-07-29T00:09:48;203.20;;;190.85;;
22768;SDS011;13001;51.968;5.918;2023-07-29T00:12:15;182.85;;;171.98;;
22768;SDS011;13001;51.968;5.918;2023-07-29T00:14:43;207.50;;;195.18;;
22768;SDS011;13001;51.968;5.918;2023-07-29T00:17:10;215.37;;;202.68;;
22768;SDS011;13001;51.968;5.918;2023-07-29T00:19:37;221.53;;;208.28;;
22768;SDS011;13001;51.968;5.918;2023-07-29T00:22:04;237.00;;;223.07;;
22768;SDS011;13001;51.968;5.918;2023-07-29T00:24:32;231.63;;;218.10;;
22768;SDS011;13001;51.968;5.918;2023-07-29T00:26:59;229.18;;;215.45;;
22768;SDS011;13001;51.968;5.918;2023-07-29T00:29:26;230.25;;;216.60;;
22768;SDS011;13001;51.968;5.918;2023-07-29T00:31:54;236.90;;;223.10;;
22768;SDS011;13001;51.968;5.918;2023-07-29T00:34:21;233.57;;;219.62;;
22768;SDS011;13001;51.968;5.918;2023-07-29T00:36:48;241.02;;;226.80;;
22768;SDS011;13001;51.968;5.918;2023-07-29T00:39:15;223.70;;;210.32;;
22768;SDS011;13001;51.968;5.918;2023-07-29T00:41:43;203.67;;;191.28;;
22768;SDS011;13001;51.968;5.918;2023-07-29T00:44:12;233.32;;;219.55;;
22768;SDS011;13001;51.968;5.918;2023-07-29T00:46:39;232.77;;;219.23;;
22768;SDS011;13001;51.968;5.918;2023-07-29T00:49:08;228.50;;;215.15;;
22768;SDS011;13001;51.968;5.918;2023-07-29T00:51:35;241.20;;;227.17;;
22768;SDS011;13001;51.968;5.918;2023-07-29T00:54:02;239.15;;;225.05;;
22768;SDS011;13001;51.968;5.918;2023-07-29T00:56:30;222.00;;;208.93;;
22768;SDS011;13001;51.968;5.918;2023-07-29T00:58:57;179.05;;;168.25;;
22768;SDS011;13001;51.968;5.918;2023-07-29T01:01:31;165.75;;;155.52;;
22768;SDS011;13001;51.968;5.918;2023-07-29T01:03:56;184.22;;;173.15;;
22768;SDS011;13001;51.968;5.918;2023-07-29T01:08:58;219.05;;;206.13;;
22768;SDS011;13001;51.968;5.918;2023-07-29T01:13:58;225.70;;;212.55;;
22768;SDS011;13001;51.968;5.918;2023-07-29T01:16:26;238.45;;;224.50;;
22768;SDS011;13001;51.968;5.918;2023-07-29T01:18:53;239.23;;;225.22;;
22768;SDS011;13001;51.968;5.918;2023-07-29T01:21:21;238.57;;;224.62;;
22768;SDS011;13001;51.968;5.918;2023-07-29T01:23:52;233.07;;;219.07;;
22768;SDS011;13001;51.968;5.918;2023-07-29T01:26:17;232.40;;;218.70;;
22768;SDS011;13001;51.968;5.918;2023-07-29T01:28:44;232.57;;;218.75;;
22768;SDS011;13001;51.968;5.918;2023-07-29T01:31:13;230.18;;;216.60;;
22768;SDS011;13001;51.968;5.918;2023-07-29T01:33:53;220.57;;;207.33;;
22768;SDS011;13001;51.968;5.918;2023-07-29T01:36:18;219.37;;;206.35;;
22768;SDS011;13001;51.968;5.918;2023-07-29T01:38:41;215.50;;;202.57;;
22768;SDS011;13001;51.968;5.918;2023-07-29T01:41:10;220.80;;;207.60;;
22768;SDS011;13001;51.968;5.918;2023-07-29T01:43:38;219.45;;;206.35;;
22768;SDS011;13001;51.968;5.918;2023-07-29T01:46:07;218.82;;;205.45;;
22768;SDS011;13001;51.968;5.918;2023-07-29T01:48:34;220.55;;;207.15;;
22768;SDS011;13001;51.968;5.918;2023-07-29T01:51:02;215.28;;;202.47;;
22768;SDS011;13001;51.968;5.918;2023-07-29T01:53:29;211.37;;;198.47;;
22768;SDS011;13001;51.968;5.918;2023-07-29T01:55:57;210.77;;;198.27;;
22768;SDS011;13001;51.968;5.918;2023-07-29T01:58:24;211.92;;;199.35;;
22768;SDS011;13001;51.968;5.918;2023-07-29T02:00:52;215.80;;;202.78;;
22768;SDS011;13001;51.968;5.918;2023-07-29T02:03:19;213.30;;;200.53;;
22768;SDS011;13001;51.968;5.918;2023-07-29T02:05:46;209.12;;;196.50;;
22768;SDS011;13001;51.968;5.918;2023-07-29T02:08:14;210.15;;;197.72;;
22768;SDS011;13001;51.968;5.918;2023-07-29T02:10:41;210.17;;;197.47;;
22768;SDS011;13001;51.968;5.918;2023-07-29T02:13:10;210.38;;;197.98;;
22768;SDS011;13001;51.968;5.918;2023-07-29T02:15:37;208.93;;;196.53;;
22768;SDS011;13001;51.968;5.918;2023-07-29T02:18:04;210.43;;;197.93;;
22768;SDS011;13001;51.968;5.918;2023-07-29T02:20:33;214.47;;;201.77;;
22768;SDS011;13001;51.968;5.918;2023-07-29T02:23:00;212.67;;;200.00;;
22768;SDS011;13001;51.968;5.918;2023-07-29T02:25:28;214.93;;;202.03;;
22768;SDS011;13001;51.968;5.918;2023-07-29T02:27:55;213.12;;;200.35;;
22768;SDS011;13001;51.968;5.918;2023-07-29T02:30:22;214.57;;;201.67;;
22768;SDS011;13001;51.968;5.918;2023-07-29T02:32:49;212.10;;;199.07;;
22768;SDS011;13001;51.968;5.918;2023-07-29T02:35:17;214.10;;;201.30;;
22768;SDS011;13001;51.968;5.918;2023-07-29T02:37:44;217.55;;;204.55;;
22768;SDS011;13001;51.968;5.918;2023-07-29T02:40:11;216.50;;;203.55;;
22768;SDS011;13001;51.968;5.918;2023-07-29T02:42:38;217.77;;;204.90;;
22768;SDS011;13001;51.968;5.918;2023-07-29T02:45:06;212.55;;;199.72;;
22768;SDS011;13001;51.968;5.918;2023-07-29T02:47:36;219.15;;;206.07;;
22768;SDS011;13001;51.968;5.918;2023-07-29T02:50:04;221.28;;;207.98;;
22768;SDS011;13001;51.968;5.918;2023-07-29T02:52:31;218.80;;;205.57;;
22768;SDS011;13001;51.968;5.918;2023-07-29T02:54:58;220.33;;;207.23;;
22768;SDS011;13001;51.968;5.918;2023-07-29T02:57:26;217.10;;;203.90;;
22768;SDS011;13001;51.968;5.918;2023-07-29T02:59:53;218.57;;;205.30;;
22768;SDS011;13001;51.968;5.918;2023-07-29T03:02:20;207.27;;;194.77;;
22768;SDS011;13001;51.968;5.918;2023-07-29T03:04:48;203.43;;;191.20;;
22768;SDS011;13001;51.968;5.918;2023-07-29T03:07:15;202.28;;;190.03;;
22768;SDS011;13001;51.968;5.918;2023-07-29T03:09:42;197.00;;;185.25;;
22768;SDS011;13001;51.968;5.918;2023-07-29T03:12:11;190.40;;;178.87;;
22768;SDS011;13001;51.968;5.918;2023-07-29T03:14:38;186.57;;;175.12;;
22768;SDS011;13001;51.968;5.918;2023-07-29T03:17:07;189.07;;;177.35;;
22768;SDS011;13001;51.968;5.918;2023-07-29T03:19:35;180.55;;;169.55;;
22768;SDS011;13001;51.968;5.918;2023-07-29T03:22:03;176.25;;;165.62;;
22768;SDS011;13001;51.968;5.918;2023-07-29T03:24:30;165.52;;;155.32;;
22768;SDS011;13001;51.968;5.918;2023-07-29T03:26:57;153.20;;;143.93;;
22768;SDS011;13001;51.968;5.918;2023-07-29T03:29:24;150.95;;;141.88;;
22768;SDS011;13001;51.968;5.918;2023-07-29T03:31:52;136.68;;;128.47;;
22768;SDS011;13001;51.968;5.918;2023-07-29T03:34:19;141.57;;;132.97;;
22768;SDS011;13001;51.968;5.918;2023-07-29T03:36:46;131.97;;;123.92;;
22768;SDS011;13001;51.968;5.918;2023-07-29T03:39:14;126.22;;;118.82;;
22768;SDS011;13001;51.968;5.918;2023-07-29T03:41:41;113.03;;;106.52;;
22768;SDS011;13001;51.968;5.918;2023-07-29T03:44:09;125.53;;;117.57;;
22768;SDS011;13001;51.968;5.918;2023-07-29T03:46:36;117.72;;;110.50;;
22768;SDS011;13001;51.968;5.918;2023-07-29T03:49:03;107.75;;;101.27;;
22768;SDS011;13001;51.968;5.918;2023-07-29T03:51:30;111.03;;;104.53;;
22768;SDS011;13001;51.968;5.918;2023-07-29T03:53:58;112.42;;;105.63;;
22768;SDS011;13001;51.968;5.918;2023-07-29T03:56:25;112.05;;;105.30;;
22768;SDS011;13001;51.968;5.918;2023-07-29T03:58:52;108.63;;;102.33;;
22768;SDS011;13001;51.968;5.918;2023-07-29T04:01:20;115.77;;;109.00;;
22768;SDS011;13001;51.968;5.918;2023-07-29T04:03:47;124.15;;;116.75;;
22768;SDS011;13001;51.968;5.918;2023-07-29T04:06:14;107.58;;;101.25;;
22768;SDS011;13001;51.968;5.918;2023-07-29T04:08:41;114.47;;;107.72;;
22768;SDS011;13001;51.968;5.918;2023-07-29T04:11:09;111.77;;;105.07;;
22768;SDS011;13001;51.968;5.918;2023-07-29T04:13:36;110.20;;;103.80;;
22768;SDS011;13001;51.968;5.918;2023-07-29T04:16:04;110.48;;;103.95;;
22768;SDS011;13001;51.968;5.918;2023-07-29T04:18:31;103.05;;;96.95;;
22768;SDS011;13001;51.968;5.918;2023-07-29T04:20:58;106.50;;;100.25;;
22768;SDS011;13001;51.968;5.918;2023-07-29T04:23:26;106.03;;;99.70;;
22768;SDS011;13001;51.968;5.918;2023-07-29T04:25:53;106.75;;;100.25;;
22768;SDS011;13001;51.968;5.918;2023-07-29T04:28:20;110.80;;;103.90;;
22768;SDS011;13001;51.968;5.918;2023-07-29T04:30:48;110.92;;;103.83;;
22768;SDS011;13001;51.968;5.918;2023-07-29T04:33:15;129.12;;;120.62;;
22768;SDS011;13001;51.968;5.918;2023-07-29T04:35:42;140.00;;;130.60;;
22768;SDS011;13001;51.968;5.918;2023-07-29T04:38:09;130.03;;;121.25;;
22768;SDS011;13001;51.968;5.918;2023-07-29T04:40:37;152.97;;;142.18;;
22768;SDS011;13001;51.968;5.918;2023-07-29T04:43:04;135.07;;;125.78;;
22768;SDS011;13001;51.968;5.918;2023-07-29T04:45:31;126.93;;;118.07;;
22768;SDS011;13001;51.968;5.918;2023-07-29T04:47:58;132.60;;;123.27;;
22768;SDS011;13001;51.968;5.918;2023-07-29T04:50:26;128.35;;;119.47;;
22768;SDS011;13001;51.968;5.918;2023-07-29T04:52:54;145.05;;;134.95;;
22768;SDS011;13001;51.968;5.918;2023-07-29T04:55:21;158.78;;;147.68;;
22768;SDS011;13001;51.968;5.918;2023-07-29T04:57:48;167.95;;;155.93;;
22768;SDS011;13001;51.968;5.918;2023-07-29T05:00:15;193.00;;;179.33;;
22768;SDS011;13001;51.968;5.918;2023-07-29T05:02:43;216.78;;;201.70;;
22768;SDS011;13001;51.968;5.918;2023-07-29T05:05:10;271.15;;;253.18;;
22768;SDS011;13001;51.968;5.918;2023-07-29T05:07:37;247.65;;;231.17;;
22768;SDS011;13001;51.968;5.918;2023-07-29T05:10:05;272.48;;;254.35;;
22768;SDS011;13001;51.968;5.918;2023-07-29T05:12:32;348.73;;;326.13;;
22768;SDS011;13001;51.968;5.918;2023-07-29T05:15:00;378.15;;;353.20;;
22768;SDS011;13001;51.968;5.918;2023-07-29T05:17:27;374.35;;;350.00;;
22768;SDS011;13001;51.968;5.918;2023-07-29T05:19:54;356.23;;;333.17;;
22768;SDS011;13001;51.968;5.918;2023-07-29T05:22:22;412.92;;;386.32;;
22768;SDS011;13001;51.968;5.918;2023-07-29T05:24:51;411.70;;;384.73;;
22768;SDS011;13001;51.968;5.918;2023-07-29T05:27:18;432.82;;;404.53;;
22768;SDS011;13001;51.968;5.918;2023-07-29T05:29:45;438.33;;;410.05;;
22768;SDS011;13001;51.968;5.918;2023-07-29T05:32:12;443.20;;;414.35;;
22768;SDS011;13001;51.968;5.918;2023-07-29T05:34:40;445.48;;;416.55;;
22768;SDS011;13001;51.968;5.918;2023-07-29T05:37:07;452.02;;;421.93;;
22768;SDS011;13001;51.968;5.918;2023-07-29T05:39:34;428.52;;;400.62;;
22768;SDS011;13001;51.968;5.918;2023-07-29T05:42:01;423.95;;;396.50;;
22768;SDS011;13001;51.968;5.918;2023-07-29T05:44:30;436.38;;;407.90;;
22768;SDS011;13001;51.968;5.918;2023-07-29T05:47:00;444.85;;;416.25;;
22768;SDS011;13001;51.968;5.918;2023-07-29T05:49:28;446.48;;;417.10;;
22768;SDS011;13001;51.968;5.918;2023-07-29T05:51:55;446.25;;;417.03;;
22768;SDS011;13001;51.968;5.918;2023-07-29T05:54:22;465.25;;;434.60;;
22768;SDS011;13001;51.968;5.918;2023-07-29T05:56:50;472.35;;;441.10;;
22768;SDS011;13001;51.968;5.918;2023-07-29T05:59:17;468.77;;;437.55;;
22768;SDS011;13001;51.968;5.918;2023-07-29T06:01:44;473.52;;;442.27;;
22768;SDS011;13001;51.968;5.918;2023-07-29T06:06:58;489.03;;;456.43;;
22768;SDS011;13001;51.968;5.918;2023-07-29T06:09:25;497.02;;;463.50;;
22768;SDS011;13001;51.968;5.918;2023-07-29T06:11:53;482.27;;;450.38;;
22768;SDS011;13001;51.968;5.918;2023-07-29T06:14:20;449.48;;;420.05;;
22768;SDS011;13001;51.968;5.918;2023-07-29T06:16:47;434.50;;;406.80;;
22768;SDS011;13001;51.968;5.918;2023-07-29T06:19:15;450.87;;;421.55;;
22768;SDS011;13001;51.968;5.918;2023-07-29T06:21:42;468.27;;;437.70;;
22768;SDS011;13001;51.968;5.918;2023-07-29T06:24:09;378.77;;;353.35;;
22768;SDS011;13001;51.968;5.918;2023-07-29T06:26:36;317.75;;;298.00;;
22768;SDS011;13001;51.968;5.918;2023-07-29T09:03:04;383.07;;;359.67;;
22768;SDS011;13001;51.968;5.918;2023-07-29T09:05:33;499.42;;;468.77;;
22768;SDS011;13001;51.968;5.918;2023-07-29T09:08:02;365.30;;;344.40;;
22768;SDS011;13001;51.968;5.918;2023-07-29T09:10:29;316.00;;;298.18;;
22768;SDS011;13001;51.968;5.918;2023-07-29T09:12:57;322.55;;;304.05;;
22768;SDS011;13001;51.968;5.918;2023-07-29T09:15:27;252.72;;;237.70;;
22768;SDS011;13001;51.968;5.918;2023-07-29T09:17:56;262.90;;;247.40;;
22768;SDS011;13001;51.968;5.918;2023-07-29T09:20:24;305.35;;;287.68;;
22768;SDS011;13001;51.968;5.918;2023-07-29T09:22:55;503.70;;;473.65;;
22768;SDS011;13001;51.968;5.918;2023-07-29T09:25:24;551.90;;;518.17;;
22768;SDS011;13001;51.968;5.918;2023-07-29T09:27:52;554.75;;;520.17;;
22768;SDS011;13001;51.968;5.918;2023-07-29T09:30:19;540.17;;;507.23;;
22768;SDS011;13001;51.968;5.918;2023-07-29T09:32:46;484.37;;;455.40;;
22768;SDS011;13001;51.968;5.918;2023-07-29T09:35:13;401.60;;;378.42;;
22768;SDS011;13001;51.968;5.918;2023-07-29T09:37:41;389.55;;;367.07;;
22768;SDS011;13001;51.968;5.918;2023-07-29T09:40:13;282.20;;;266.33;;
22768;SDS011;13001;51.968;5.918;2023-07-29T09:42:37;218.57;;;205.93;;
22768;SDS011;13001;51.968;5.918;2023-07-29T09:45:04;245.63;;;231.28;;
22768;SDS011;13001;51.968;5.918;2023-07-29T09:47:32;233.60;;;219.50;;
22768;SDS011;13001;51.968;5.918;2023-07-29T09:49:59;276.95;;;261.02;;
22768;SDS011;13001;51.968;5.918;2023-07-29T09:52:26;259.83;;;244.47;;
22768;SDS011;13001;51.968;5.918;2023-07-29T09:54:54;247.55;;;233.02;;
22768;SDS011;13001;51.968;5.918;2023-07-29T09:57:21;284.30;;;268.07;;
22768;SDS011;13001;51.968;5.918;2023-07-29T09:59:54;458.70;;;431.70;;
22768;SDS011;13001;51.968;5.918;2023-07-29T10:02:22;448.70;;;422.45;;
22768;SDS011;13001;51.968;5.918;2023-07-29T10:04:52;454.87;;;428.45;;
22768;SDS011;13001;51.968;5.918;2023-07-29T10:07:19;492.90;;;463.22;;
22768;SDS011;13001;51.968;5.918;2023-07-29T10:09:47;413.40;;;389.50;;
22768;SDS011;13001;51.968;5.918;2023-07-29T10:12:15;234.35;;;220.70;;
22768;SDS011;13001;51.968;5.918;2023-07-29T10:14:42;199.65;;;188.52;;
22768;SDS011;13001;51.968;5.918;2023-07-29T10:17:09;61.00;;;57.58;;
22768;SDS011;13001;51.968;5.918;2023-07-29T10:19:37;30.70;;;29.05;;
22768;SDS011;13001;51.968;5.918;2023-07-29T10:22:04;26.65;;;25.27;;
22768;SDS011;13001;51.968;5.918;2023-07-29T10:24:33;52.38;;;49.50;;
22768;SDS011;13001;51.968;5.918;2023-07-29T10:27:01;58.35;;;55.12;;
22768;SDS011;13001;51.968;5.918;2023-07-29T10:29:30;79.35;;;75.10;;
22768;SDS011;13001;51.968;5.918;2023-07-29T10:32:01;77.83;;;73.53;;
22768;SDS011;13001;51.968;5.918;2023-07-29T10:34:27;87.00;;;82.17;;
22768;SDS011;13001;51.968;5.918;2023-07-29T10:36:55;80.43;;;75.83;;
22768;SDS011;13001;51.968;5.918;2023-07-29T10:39:24;109.27;;;103.15;;
22768;SDS011;13001;51.968;5.918;2023-07-29T10:42:01;77.15;;;72.95;;
22768;SDS011;13001;51.968;5.918;2023-07-29T10:47:13;56.80;;;53.70;;
22768;SDS011;13001;51.968;5.918;2023-07-29T10:49:46;121.93;;;114.73;;
22768;SDS011;13001;51.968;5.918;2023-07-29T10:52:16;98.85;;;93.03;;
22768;SDS011;13001;51.968;5.918;2023-07-29T10:54:44;106.13;;;100.00;;
22768;SDS011;13001;51.968;5.918;2023-07-29T10:57:14;136.62;;;128.60;;
22768;SDS011;13001;51.968;5.918;2023-07-29T10:59:53;146.43;;;137.85;;
22768;SDS011;13001;51.968;5.918;2023-07-29T11:02:17;209.03;;;196.98;;
22768;SDS011;13001;51.968;5.918;2023-07-29T11:04:46;204.03;;;192.15;;
22768;SDS011;13001;51.968;5.918;2023-07-29T11:12:36;241.68;;;227.97;;
22768;SDS011;13001;51.968;5.918;2023-07-29T11:17:40;230.20;;;217.10;;
22768;SDS011;13001;51.968;5.918;2023-07-29T11:20:07;169.07;;;159.43;;
22768;SDS011;13001;51.968;5.918;2023-07-29T11:22:35;194.67;;;183.65;;
22768;SDS011;13001;51.968;5.918;2023-07-29T11:25:03;183.20;;;172.87;;
22768;SDS011;13001;51.968;5.918;2023-07-29T11:27:34;188.20;;;177.55;;
22768;SDS011;13001;51.968;5.918;2023-07-29T11:30:05;234.83;;;221.55;;
22768;SDS011;13001;51.968;5.918;2023-07-29T11:32:34;239.55;;;226.12;;
22768;SDS011;13001;51.968;5.918;2023-07-29T11:35:02;276.98;;;261.35;;
22768;SDS011;13001;51.968;5.918;2023-07-29T11:37:30;287.05;;;270.63;;
22768;SDS011;13001;51.968;5.918;2023-07-29T11:39:58;377.38;;;355.18;;
22768;SDS011;13001;51.968;5.918;2023-07-29T11:42:26;410.85;;;386.67;;
22768;SDS011;13001;51.968;5.918;2023-07-29T11:44:57;387.98;;;365.50;;
22768;SDS011;13001;51.968;5.918;2023-07-29T11:47:24;456.65;;;429.45;;
22768;SDS011;13001;51.968;5.918;2023-07-29T11:49:52;476.55;;;448.62;;
22768;SDS011;13001;51.968;5.918;2023-07-29T11:52:19;516.98;;;486.23;;
22768;SDS011;13001;51.968;5.918;2023-07-29T11:54:48;532.33;;;499.80;;
22768;SDS011;13001;51.968;5.918;2023-07-29T11:57:16;536.33;;;503.45;;
22768;SDS011;13001;51.968;5.918;2023-07-29T11:59:44;535.03;;;501.73;;
22768;SDS011;13001;51.968;5.918;2023-07-29T12:02:13;442.80;;;415.88;;
22768;SDS011;13001;51.968;5.918;2023-07-29T12:04:41;388.93;;;365.37;;
22768;SDS011;13001;51.968;5.918;2023-07-29T12:07:08;378.92;;;355.83;;
22768;SDS011;13001;51.968;5.918;2023-07-29T12:09:36;378.23;;;355.15;;
22768;SDS011;13001;51.968;5.918;2023-07-29T12:12:03;368.20;;;346.32;;
22768;SDS011;13001;51.968;5.918;2023-07-29T12:14:31;317.30;;;298.98;;
22768;SDS011;13001;51.968;5.918;2023-07-29T12:16:59;290.30;;;273.62;;
22768;SDS011;13001;51.968;5.918;2023-07-29T12:19:37;249.90;;;234.95;;
22768;SDS011;13001;51.968;5.918;2023-07-29T12:21:57;258.57;;;243.53;;
22768;SDS011;13001;51.968;5.918;2023-07-29T12:24:24;307.27;;;288.77;;
22768;SDS011;13001;51.968;5.918;2023-07-29T12:26:52;363.83;;;341.47;;
22768;SDS011;13001;51.968;5.918;2023-07-29T12:29:19;376.70;;;353.57;;
22768;SDS011;13001;51.968;5.918;2023-07-29T12:31:46;373.85;;;351.05;;
22768;SDS011;13001;51.968;5.918;2023-07-29T12:34:18;395.57;;;371.32;;
22768;SDS011;13001;51.968;5.918;2023-07-29T12:36:50;380.85;;;357.35;;
22768;SDS011;13001;51.968;5.918;2023-07-29T12:39:28;381.40;;;358.00;;
22768;SDS011;13001;51.968;5.918;2023-07-29T12:42:00;380.98;;;357.75;;
22768;SDS011;13001;51.968;5.918;2023-07-29T12:44:24;374.10;;;351.48;;
22768;SDS011;13001;51.968;5.918;2023-07-29T12:46:52;366.57;;;344.63;;
22768;SDS011;13001;51.968;5.918;2023-07-29T12:49:19;370.23;;;348.10;;
22768;SDS011;13001;51.968;5.918;2023-07-29T12:51:46;375.07;;;352.97;;
22768;SDS011;13001;51.968;5.918;2023-07-29T12:54:14;348.82;;;328.32;;
22768;SDS011;13001;51.968;5.918;2023-07-29T12:56:41;341.30;;;321.18;;
22768;SDS011;13001;51.968;5.918;2023-07-29T12:59:08;221.05;;;207.87;;
22768;SDS011;13001;51.968;5.918;2023-07-29T13:01:36;223.55;;;210.43;;
22768;SDS011;13001;51.968;5.918;2023-07-29T13:04:03;229.68;;;216.15;;
22768;SDS011;13001;51.968;5.918;2023-07-29T13:06:30;289.20;;;271.45;;
22768;SDS011;13001;51.968;5.918;2023-07-29T13:08:57;298.85;;;280.23;;
22768;SDS011;13001;51.968;5.918;2023-07-29T13:11:25;319.70;;;299.85;;
22768;SDS011;13001;51.968;5.918;2023-07-29T13:13:52;318.70;;;299.30;;
22768;SDS011;13001;51.968;5.918;2023-07-29T13:16:19;362.68;;;340.73;;
22768;SDS011;13001;51.968;5.918;2023-07-29T13:18:47;327.13;;;306.93;;
22768;SDS011;13001;51.968;5.918;2023-07-29T13:21:14;317.00;;;297.53;;
22768;SDS011;13001;51.968;5.918;2023-07-29T13:23:42;348.77;;;327.18;;
22768;SDS011;13001;51.968;5.918;2023-07-29T13:26:09;318.48;;;298.55;;
22768;SDS011;13001;51.968;5.918;2023-07-29T13:28:37;384.52;;;360.75;;
22768;SDS011;13001;51.968;5.918;2023-07-29T13:31:04;385.57;;;361.50;;
22768;SDS011;13001;51.968;5.918;2023-07-29T13:33:31;387.17;;;362.85;;
22768;SDS011;13001;51.968;5.918;2023-07-29T13:36:00;357.43;;;335.37;;
22768;SDS011;13001;51.968;5.918;2023-07-29T13:38:31;321.87;;;302.00;;
22768;SDS011;13001;51.968;5.918;2023-07-29T13:40:58;335.73;;;314.90;;
22768;SDS011;13001;51.968;5.918;2023-07-29T13:43:25;362.68;;;340.35;;
22768;SDS011;13001;51.968;5.918;2023-07-29T13:45:52;383.17;;;359.40;;
22768;SDS011;13001;51.968;5.918;2023-07-29T13:48:20;429.75;;;402.85;;
22768;SDS011;13001;51.968;5.918;2023-07-29T13:50:48;386.18;;;362.23;;
22768;SDS011;13001;51.968;5.918;2023-07-29T13:53:17;372.40;;;349.33;;
22768;SDS011;13001;51.968;5.918;2023-07-29T13:55:44;412.00;;;386.45;;
22768;SDS011;13001;51.968;5.918;2023-07-29T13:58:13;378.20;;;354.85;;
22768;SDS011;13001;51.968;5.918;2023-07-29T14:00:40;427.95;;;401.07;;
22768;SDS011;13001;51.968;5.918;2023-07-29T14:03:07;372.43;;;349.47;;
22768;SDS011;13001;51.968;5.918;2023-07-29T14:05:35;375.27;;;351.80;;
22768;SDS011;13001;51.968;5.918;2023-07-29T14:08:02;413.27;;;387.68;;
22768;SDS011;13001;51.968;5.918;2023-07-29T14:10:29;380.62;;;357.20;;
22768;SDS011;13001;51.968;5.918;2023-07-29T14:12:56;364.05;;;341.08;;
22768;SDS011;13001;51.968;5.918;2023-07-29T14:15:24;368.77;;;345.55;;
22768;SDS011;13001;51.968;5.918;2023-07-29T14:17:51;387.48;;;363.70;;
22768;SDS011;13001;51.968;5.918;2023-07-29T14:20:18;367.75;;;344.62;;
22768;SDS011;13001;51.968;5.918;2023-07-29T14:22:46;372.77;;;349.48;;
22768;SDS011;13001;51.968;5.918;2023-07-29T14:25:14;372.63;;;349.88;;
22768;SDS011;13001;51.968;5.918;2023-07-29T14:27:41;379.90;;;356.65;;
22768;SDS011;13001;51.968;5.918;2023-07-29T14:30:08;369.62;;;347.05;;
22768;SDS011;13001;51.968;5.918;2023-07-29T14:32:36;369.95;;;347.00;;
22768;SDS011;13001;51.968;5.918;2023-07-29T14:35:03;379.20;;;356.20;;
22768;SDS011;13001;51.968;5.918;2023-07-29T14:37:31;382.17;;;358.80;;
22768;SDS011;13001;51.968;5.918;2023-07-29T14:39:58;380.45;;;357.02;;
22768;SDS011;13001;51.968;5.918;2023-07-29T14:42:31;370.73;;;347.57;;
22768;SDS011;13001;51.968;5.918;2023-07-29T14:44:58;363.15;;;340.85;;
22768;SDS011;13001;51.968;5.918;2023-07-29T14:47:26;372.15;;;349.05;;
22768;SDS011;13001;51.968;5.918;2023-07-29T14:49:53;380.77;;;357.07;;
22768;SDS011;13001;51.968;5.918;2023-07-29T14:52:21;398.62;;;374.42;;
22768;SDS011;13001;51.968;5.918;2023-07-29T14:54:48;359.70;;;337.25;;
22768;SDS011;13001;51.968;5.918;2023-07-29T14:57:16;368.75;;;345.77;;
22768;SDS011;13001;51.968;5.918;2023-07-29T14:59:44;381.65;;;357.98;;
22768;SDS011;13001;51.968;5.918;2023-07-29T15:02:11;371.00;;;347.75;;
22768;SDS011;13001;51.968;5.918;2023-07-29T15:04:42;380.00;;;356.00;;
22768;SDS011;13001;51.968;5.918;2023-07-29T15:07:10;390.57;;;366.00;;
22768;SDS011;13001;51.968;5.918;2023-07-29T15:09:37;382.60;;;358.75;;
22768;SDS011;13001;51.968;5.918;2023-07-29T15:12:05;383.45;;;359.52;;
22768;SDS011;13001;51.968;5.918;2023-07-29T15:14:33;373.33;;;350.50;;
22768;SDS011;13001;51.968;5.918;2023-07-29T15:17:01;373.65;;;350.73;;
22768;SDS011;13001;51.968;5.918;2023-07-29T15:19:30;390.20;;;366.40;;
22768;SDS011;13001;51.968;5.918;2023-07-29T15:22:03;406.57;;;381.85;;
22768;SDS011;13001;51.968;5.918;2023-07-29T15:24:38;389.02;;;364.95;;
22768;SDS011;13001;51.968;5.918;2023-07-29T15:27:08;373.43;;;350.13;;
22768;SDS011;13001;51.968;5.918;2023-07-29T15:29:36;371.15;;;348.18;;
22768;SDS011;13001;51.968;5.918;2023-07-29T15:32:07;387.75;;;363.57;;
22768;SDS011;13001;51.968;5.918;2023-07-29T15:34:34;396.73;;;372.25;;
22768;SDS011;13001;51.968;5.918;2023-07-29T15:37:02;381.90;;;358.13;;
22768;SDS011;13001;51.968;5.918;2023-07-29T15:39:31;403.95;;;379.25;;
22768;SDS011;13001;51.968;5.918;2023-07-29T15:41:58;374.67;;;351.73;;
22768;SDS011;13001;51.968;5.918;2023-07-29T15:44:26;370.70;;;347.88;;
22768;SDS011;13001;51.968;5.918;2023-07-29T15:46:53;382.17;;;358.70;;
22768;SDS011;13001;51.968;5.918;2023-07-29T15:49:22;370.95;;;347.98;;
22768;SDS011;13001;51.968;5.918;2023-07-29T15:51:51;372.65;;;350.05;;
22768;SDS011;13001;51.968;5.918;2023-07-29T15:54:19;383.20;;;359.80;;
22768;SDS011;13001;51.968;5.918;2023-07-29T15:56:46;392.65;;;368.77;;
22768;SDS011;13001;51.968;5.918;2023-07-29T15:59:14;398.82;;;374.58;;
22768;SDS011;13001;51.968;5.918;2023-07-29T16:01:41;373.98;;;350.60;;
22768;SDS011;13001;51.968;5.918;2023-07-29T16:04:11;360.88;;;338.48;;
22768;SDS011;13001;51.968;5.918;2023-07-29T16:06:39;361.52;;;339.38;;
22768;SDS011;13001;51.968;5.918;2023-07-29T16:09:10;379.00;;;355.73;;
22768;SDS011;13001;51.968;5.918;2023-07-29T16:11:38;384.02;;;360.85;;
22768;SDS011;13001;51.968;5.918;2023-07-29T16:14:06;383.40;;;360.10;;
22768;SDS011;13001;51.968;5.918;2023-07-29T16:16:33;405.13;;;380.33;;
22768;SDS011;13001;51.968;5.918;2023-07-29T16:19:01;422.30;;;396.73;;
22768;SDS011;13001;51.968;5.918;2023-07-29T16:21:28;415.80;;;390.43;;
22768;SDS011;13001;51.968;5.918;2023-07-29T16:23:56;403.45;;;378.85;;
22768;SDS011;13001;51.968;5.918;2023-07-29T16:26:23;403.80;;;378.95;;
22768;SDS011;13001;51.968;5.918;2023-07-29T16:28:51;388.00;;;363.98;;
22768;SDS011;13001;51.968;5.918;2023-07-29T16:31:18;382.32;;;357.90;;
22768;SDS011;13001;51.968;5.918;2023-07-29T16:33:47;384.43;;;359.98;;
22768;SDS011;13001;51.968;5.918;2023-07-29T16:36:19;386.18;;;362.27;;
22768;SDS011;13001;51.968;5.918;2023-07-29T16:38:47;342.75;;;322.30;;
22768;SDS011;13001;51.968;5.918;2023-07-29T16:41:15;294.67;;;277.55;;
22768;SDS011;13001;51.968;5.918;2023-07-29T16:43:42;272.10;;;256.57;;
22768;SDS011;13001;51.968;5.918;2023-07-29T16:46:09;317.60;;;298.50;;
22768;SDS011;13001;51.968;5.918;2023-07-29T16:48:36;361.87;;;338.87;;
22768;SDS011;13001;51.968;5.918;2023-07-29T16:51:04;376.57;;;352.03;;
22768;SDS011;13001;51.968;5.918;2023-07-29T16:53:31;363.27;;;339.38;;
22768;SDS011;13001;51.968;5.918;2023-07-29T16:55:58;396.12;;;370.40;;